sensor_id;sensor_type;location;lat;lon;timestamp;pressure;altitude;pressure_sealevel;temperature;humidity
64362;BME280;50685;53.346;-6.296;2023-01-26T00:01:13;103515.19;;;5.57;82.52
64362;BME280;50685;53.346;-6.296;2023-01-26T00:03:39;103521.25;;;5.56;82.23
64362;BME280;50685;53.346;-6.296;2023-01-26T00:06:05;103513.34;;;5.56;82.25
64362;BME280;50685;53.346;-6.296;2023-01-26T00:08:34;103521.09;;;5.53;82.31
64362;BME280;50685;53.346;-6.296;2023-01-26T00:11:01;103525.59;;;5.55;82.11
64362;BME280;50685;53.346;-6.296;2023-01-26T00:13:27;103530.88;;;5.55;82.18
64362;BME280;50685;53.346;-6.296;2023-01-26T00:15:52;103526.59;;;5.57;82.55
64362;BME280;50685;53.346;-6.296;2023-01-26T00:18:17;103519.59;;;5.58;82.22
64362;BME280;50685;53.346;-6.296;2023-01-26T00:20:43;103515.25;;;5.58;82.81
64362;BME280;50685;53.346;-6.296;2023-01-26T00:23:08;103507.28;;;5.57;82.93
64362;BME280;50685;53.346;-6.296;2023-01-26T00:25:33;103512.53;;;5.57;82.88
64362;BME280;50685;53.346;-6.296;2023-01-26T00:28:01;103509.81;;;5.55;82.58
64362;BME280;50685;53.346;-6.296;2023-01-26T00:30:26;103510.41;;;5.50;82.75
64362;BME280;50685;53.346;-6.296;2023-01-26T00:32:52;103505.91;;;5.47;82.84
64362;BME280;50685;53.346;-6.296;2023-01-26T00:35:17;103505.91;;;5.47;82.93
64362;BME280;50685;53.346;-6.296;2023-01-26T00:37:42;103504.00;;;5.44;82.86
64362;BME280;50685;53.346;-6.296;2023-01-26T00:40:08;103499.56;;;5.43;82.93
64362;BME280;50685;53.346;-6.296;2023-01-26T00:42:34;103500.31;;;5.41;82.91
64362;BME280;50685;53.346;-6.296;2023-01-26T00:44:59;103509.91;;;5.40;82.97
64362;BME280;50685;53.346;-6.296;2023-01-26T00:47:24;103508.19;;;5.41;83.07
64362;BME280;50685;53.346;-6.296;2023-01-26T00:49:49;103504.81;;;5.43;83.14
64362;BME280;50685;53.346;-6.296;2023-01-26T00:52:15;103488.94;;;5.42;83.00
64362;BME280;50685;53.346;-6.296;2023-01-26T00:54:40;103473.13;;;5.42;82.99
64362;BME280;50685;53.346;-6.296;2023-01-26T00:57:05;103471.34;;;5.41;82.81
64362;BME280;50685;53.346;-6.296;2023-01-26T00:59:31;103467.72;;;5.39;82.96
64362;BME280;50685;53.346;-6.296;2023-01-26T01:01:57;103454.50;;;5.37;82.84
64362;BME280;50685;53.346;-6.296;2023-01-26T01:04:22;103463.03;;;5.33;83.00
64362;BME280;50685;53.346;-6.296;2023-01-26T01:06:47;103467.34;;;5.31;83.07
64362;BME280;50685;53.346;-6.296;2023-01-26T01:09:13;103470.78;;;5.30;83.00
64362;BME280;50685;53.346;-6.296;2023-01-26T01:11:38;103485.44;;;5.25;83.10
64362;BME280;50685;53.346;-6.296;2023-01-26T01:14:03;103487.16;;;5.24;83.13
64362;BME280;50685;53.346;-6.296;2023-01-26T01:16:29;103476.63;;;5.24;82.97
64362;BME280;50685;53.346;-6.296;2023-01-26T01:18:54;103477.31;;;5.20;83.43
64362;BME280;50685;53.346;-6.296;2023-01-26T01:21:20;103469.09;;;5.14;83.44
64362;BME280;50685;53.346;-6.296;2023-01-26T01:23:46;103469.09;;;5.14;83.64
64362;BME280;50685;53.346;-6.296;2023-01-26T01:26:12;103475.16;;;5.13;83.88
64362;BME280;50685;53.346;-6.296;2023-01-26T01:28:37;103473.53;;;5.15;83.50
64362;BME280;50685;53.346;-6.296;2023-01-26T01:31:07;103470.16;;;5.18;83.21
64362;BME280;50685;53.346;-6.296;2023-01-26T01:33:33;103486.16;;;5.22;83.04
64362;BME280;50685;53.346;-6.296;2023-01-26T01:35:59;103490.69;;;5.25;82.76
64362;BME280;50685;53.346;-6.296;2023-01-26T01:38:25;103489.03;;;5.27;82.90
64362;BME280;50685;53.346;-6.296;2023-01-26T01:40:51;103469.88;;;5.29;82.87
64362;BME280;50685;53.346;-6.296;2023-01-26T01:43:16;103476.94;;;5.30;82.71
64362;BME280;50685;53.346;-6.296;2023-01-26T01:45:42;103482.38;;;5.34;82.55
64362;BME280;50685;53.346;-6.296;2023-01-26T01:48:11;103489.34;;;5.33;82.17
64362;BME280;50685;53.346;-6.296;2023-01-26T01:50:37;103476.19;;;5.33;82.36
64362;BME280;50685;53.346;-6.296;2023-01-26T01:53:03;103460.41;;;5.33;82.51
64362;BME280;50685;53.346;-6.296;2023-01-26T01:55:30;103454.09;;;5.29;82.46
64362;BME280;50685;53.346;-6.296;2023-01-26T01:57:57;103471.59;;;5.29;82.68
64362;BME280;50685;53.346;-6.296;2023-01-26T02:00:24;103482.06;;;5.27;82.65
64362;BME280;50685;53.346;-6.296;2023-01-26T02:02:54;103483.88;;;5.28;82.46
64362;BME280;50685;53.346;-6.296;2023-01-26T02:05:56;103480.25;;;5.26;82.53
64362;BME280;50685;53.346;-6.296;2023-01-26T02:08:29;103476.81;;;5.27;82.63
64362;BME280;50685;53.346;-6.296;2023-01-26T02:10:57;103481.00;;;5.24;82.43
64362;BME280;50685;53.346;-6.296;2023-01-26T02:13:23;103486.31;;;5.25;82.80
64362;BME280;50685;53.346;-6.296;2023-01-26T02:15:50;103490.69;;;5.25;82.56
64362;BME280;50685;53.346;-6.296;2023-01-26T02:18:15;103485.25;;;5.22;82.54
64362;BME280;50685;53.346;-6.296;2023-01-26T02:20:44;103494.03;;;5.22;82.56
64362;BME280;50685;53.346;-6.296;2023-01-26T02:28:22;103486.91;;;5.20;82.94
64362;BME280;50685;53.346;-6.296;2023-01-26T02:30:48;103491.34;;;5.21;82.94
64362;BME280;50685;53.346;-6.296;2023-01-26T02:33:21;103491.34;;;5.21;82.80
64362;BME280;50685;53.346;-6.296;2023-01-26T02:35:47;103503.75;;;5.23;82.74
64362;BME280;50685;53.346;-6.296;2023-01-26T02:38:13;103500.38;;;5.26;82.75
64362;BME280;50685;53.346;-6.296;2023-01-26T02:43:16;103499.50;;;5.25;82.68
64362;BME280;50685;53.346;-6.296;2023-01-26T02:45:41;103501.22;;;5.25;82.48
64362;BME280;50685;53.346;-6.296;2023-01-26T02:48:07;103488.97;;;5.25;82.84
64362;BME280;50685;53.346;-6.296;2023-01-26T02:50:33;103488.22;;;5.28;83.00
64362;BME280;50685;53.346;-6.296;2023-01-26T02:52:58;103490.84;;;5.28;83.09
64362;BME280;50685;53.346;-6.296;2023-01-26T02:55:24;103486.25;;;5.24;83.32
64362;BME280;50685;53.346;-6.296;2023-01-26T02:57:54;103491.53;;;5.24;83.48
64362;BME280;50685;53.346;-6.296;2023-01-26T03:00:21;103474.91;;;5.25;83.35
64362;BME280;50685;53.346;-6.296;2023-01-26T03:02:46;103471.34;;;5.24;83.30
64362;BME280;50685;53.346;-6.296;2023-01-26T03:05:13;103483.53;;;5.22;83.31
64362;BME280;50685;53.346;-6.296;2023-01-26T03:07:38;103494.78;;;5.20;83.48
64362;BME280;50685;53.346;-6.296;2023-01-26T03:10:04;103500.06;;;5.20;83.50
64362;BME280;50685;53.346;-6.296;2023-01-26T03:12:29;103510.56;;;5.20;83.45
64362;BME280;50685;53.346;-6.296;2023-01-26T03:14:55;103501.78;;;5.19;83.65
64362;BME280;50685;53.346;-6.296;2023-01-26T03:17:38;103507.13;;;5.21;84.00
64362;BME280;50685;53.346;-6.296;2023-01-26T03:20:04;103501.78;;;5.19;83.74
64362;BME280;50685;53.346;-6.296;2023-01-26T03:22:48;103487.81;;;5.20;83.99
64362;BME280;50685;53.346;-6.296;2023-01-26T03:25:32;103492.25;;;5.21;83.85
64362;BME280;50685;53.346;-6.296;2023-01-26T03:28:16;103496.78;;;5.24;83.54
64362;BME280;50685;53.346;-6.296;2023-01-26T03:30:46;103497.59;;;5.23;83.40
64362;BME280;50685;53.346;-6.296;2023-01-26T03:33:12;103497.53;;;5.21;83.73
64362;BME280;50685;53.346;-6.296;2023-01-26T03:35:37;103501.88;;;5.21;83.65
64362;BME280;50685;53.346;-6.296;2023-01-26T03:38:03;103509.75;;;5.21;83.35
64362;BME280;50685;53.346;-6.296;2023-01-26T03:40:28;103506.31;;;5.22;83.23
64362;BME280;50685;53.346;-6.296;2023-01-26T03:43:12;103513.47;;;5.24;83.49
64362;BME280;50685;53.346;-6.296;2023-01-26T03:45:56;103510.91;;;5.26;83.35
64362;BME280;50685;53.346;-6.296;2023-01-26T03:48:40;103503.94;;;5.26;83.20
64362;BME280;50685;53.346;-6.296;2023-01-26T03:51:24;103497.75;;;5.26;83.28
64362;BME280;50685;53.346;-6.296;2023-01-26T03:54:08;103505.56;;;5.24;83.15
64362;BME280;50685;53.346;-6.296;2023-01-26T03:56:52;103502.94;;;5.24;82.95
64362;BME280;50685;53.346;-6.296;2023-01-26T03:59:17;103496.94;;;5.27;83.32
64362;BME280;50685;53.346;-6.296;2023-01-26T04:02:02;103495.13;;;5.26;83.17
64362;BME280;50685;53.346;-6.296;2023-01-26T04:04:46;103495.13;;;5.26;82.97
64362;BME280;50685;53.346;-6.296;2023-01-26T04:07:30;103491.53;;;5.24;82.97
64362;BME280;50685;53.346;-6.296;2023-01-26T04:10:14;103483.38;;;5.19;83.14
64362;BME280;50685;53.346;-6.296;2023-01-26T04:12:40;103492.41;;;5.24;83.23
64362;BME280;50685;53.346;-6.296;2023-01-26T04:15:05;103503.84;;;5.25;82.88
64362;BME280;50685;53.346;-6.296;2023-01-26T04:17:49;103499.50;;;5.25;82.98
64362;BME280;50685;53.346;-6.296;2023-01-26T04:20:33;103504.81;;;5.27;82.61
64362;BME280;50685;53.346;-6.296;2023-01-26T04:23:22;103507.44;;;5.27;82.68
64362;BME280;50685;53.346;-6.296;2023-01-26T04:25:47;103504.19;;;5.31;82.59
64362;BME280;50685;53.346;-6.296;2023-01-26T04:28:13;103499.06;;;5.34;82.36
64362;BME280;50685;53.346;-6.296;2023-01-26T04:30:38;103501.88;;;5.37;82.33
64362;BME280;50685;53.346;-6.296;2023-01-26T04:33:03;103496.59;;;5.37;82.40
64362;BME280;50685;53.346;-6.296;2023-01-26T04:35:29;103501.03;;;5.38;82.44
64362;BME280;50685;53.346;-6.296;2023-01-26T04:37:54;103499.25;;;5.37;81.69
64362;BME280;50685;53.346;-6.296;2023-01-26T04:40:19;103513.28;;;5.38;81.81
64362;BME280;50685;53.346;-6.296;2023-01-26T04:42:45;103516.81;;;5.38;81.79
64362;BME280;50685;53.346;-6.296;2023-01-26T04:45:10;103521.13;;;5.36;81.79
64362;BME280;50685;53.346;-6.296;2023-01-26T04:47:35;103520.13;;;5.34;81.45
64362;BME280;50685;53.346;-6.296;2023-01-26T04:50:01;103522.75;;;5.34;81.86
64362;BME280;50685;53.346;-6.296;2023-01-26T04:52:26;103513.72;;;5.29;81.73
64362;BME280;50685;53.346;-6.296;2023-01-26T04:54:52;103528.44;;;5.25;81.72
64362;BME280;50685;53.346;-6.296;2023-01-26T04:57:17;103527.28;;;5.20;82.13
64362;BME280;50685;53.346;-6.296;2023-01-26T04:59:47;103518.06;;;5.12;82.20
64362;BME280;50685;53.346;-6.296;2023-01-26T05:02:12;103529.06;;;5.05;82.09
64362;BME280;50685;53.346;-6.296;2023-01-26T05:04:38;103530.47;;;4.98;82.62
64362;BME280;50685;53.346;-6.296;2023-01-26T05:07:03;103533.66;;;4.92;82.80
64362;BME280;50685;53.346;-6.296;2023-01-26T05:09:28;103535.97;;;4.86;82.76
64362;BME280;50685;53.346;-6.296;2023-01-26T05:11:53;103530.34;;;4.80;83.22
64362;BME280;50685;53.346;-6.296;2023-01-26T05:14:39;103536.16;;;4.74;83.26
64362;BME280;50685;53.346;-6.296;2023-01-26T05:17:04;103547.53;;;4.73;83.75
64362;BME280;50685;53.346;-6.296;2023-01-26T05:19:29;103549.25;;;4.73;83.84
64362;BME280;50685;53.346;-6.296;2023-01-26T05:21:55;103542.28;;;4.73;84.13
64362;BME280;50685;53.346;-6.296;2023-01-26T05:24:20;103535.19;;;4.72;84.05
64362;BME280;50685;53.346;-6.296;2023-01-26T05:26:45;103521.78;;;4.68;84.07
64362;BME280;50685;53.346;-6.296;2023-01-26T05:29:10;103519.72;;;4.62;84.31
64362;BME280;50685;53.346;-6.296;2023-01-26T05:31:36;103529.00;;;4.55;84.56
64362;BME280;50685;53.346;-6.296;2023-01-26T05:34:02;103524.41;;;4.51;84.78
64362;BME280;50685;53.346;-6.296;2023-01-26T05:36:27;103529.38;;;4.46;84.63
64362;BME280;50685;53.346;-6.296;2023-01-26T05:38:52;103534.63;;;4.46;84.59
64362;BME280;50685;53.346;-6.296;2023-01-26T05:41:18;103540.78;;;4.47;84.82
64362;BME280;50685;53.346;-6.296;2023-01-26T05:43:43;103549.75;;;4.50;84.70
64362;BME280;50685;53.346;-6.296;2023-01-26T05:46:08;103543.75;;;4.53;84.92
64362;BME280;50685;53.346;-6.296;2023-01-26T05:48:33;103537.88;;;4.57;84.82
64362;BME280;50685;53.346;-6.296;2023-01-26T05:50:59;103536.31;;;4.61;84.87
64362;BME280;50685;53.346;-6.296;2023-01-26T05:53:24;103541.75;;;4.64;84.53
64362;BME280;50685;53.346;-6.296;2023-01-26T05:55:49;103537.50;;;4.66;84.55
64362;BME280;50685;53.346;-6.296;2023-01-26T05:58:15;103539.47;;;4.70;84.74
64362;BME280;50685;53.346;-6.296;2023-01-26T06:00:40;103537.00;;;4.73;84.36
64362;BME280;50685;53.346;-6.296;2023-01-26T06:03:05;103539.72;;;4.75;83.82
64362;BME280;50685;53.346;-6.296;2023-01-26T06:05:31;103538.09;;;4.77;83.27
64362;BME280;50685;53.346;-6.296;2023-01-26T06:07:56;103536.34;;;4.77;83.05
64362;BME280;50685;53.346;-6.296;2023-01-26T06:10:21;103547.03;;;4.80;82.98
64362;BME280;50685;53.346;-6.296;2023-01-26T06:12:47;103551.66;;;4.85;82.59
64362;BME280;50685;53.346;-6.296;2023-01-26T06:15:12;103545.81;;;4.90;82.66
64362;BME280;50685;53.346;-6.296;2023-01-26T06:17:37;103549.38;;;4.91;82.06
64362;BME280;50685;53.346;-6.296;2023-01-26T06:20:04;103556.59;;;4.95;81.98
64362;BME280;50685;53.346;-6.296;2023-01-26T06:22:29;103560.22;;;4.97;81.63
64362;BME280;50685;53.346;-6.296;2023-01-26T06:24:55;103551.41;;;4.96;81.40
64362;BME280;50685;53.346;-6.296;2023-01-26T06:27:20;103551.53;;;4.98;80.82
64362;BME280;50685;53.346;-6.296;2023-01-26T06:29:45;103556.03;;;5.01;80.93
64362;BME280;50685;53.346;-6.296;2023-01-26T06:32:11;103555.13;;;5.00;81.12
64362;BME280;50685;53.346;-6.296;2023-01-26T06:34:37;103550.78;;;5.01;80.95
64362;BME280;50685;53.346;-6.296;2023-01-26T06:37:02;103553.41;;;5.01;81.04
64362;BME280;50685;53.346;-6.296;2023-01-26T06:39:27;103552.59;;;5.02;80.90
64362;BME280;50685;53.346;-6.296;2023-01-26T06:41:52;103549.97;;;5.02;80.50
64362;BME280;50685;53.346;-6.296;2023-01-26T06:44:18;103546.53;;;5.03;80.77
64362;BME280;50685;53.346;-6.296;2023-01-26T06:46:43;103555.31;;;5.03;80.76
64362;BME280;50685;53.346;-6.296;2023-01-26T06:49:08;103557.94;;;5.03;80.81
64362;BME280;50685;53.346;-6.296;2023-01-26T06:51:44;103547.50;;;5.05;80.46
64362;BME280;50685;53.346;-6.296;2023-01-26T06:54:14;103555.44;;;5.06;80.65
64362;BME280;50685;53.346;-6.296;2023-01-26T06:56:40;103553.81;;;5.08;80.82
64362;BME280;50685;53.346;-6.296;2023-01-26T06:59:05;103561.56;;;5.05;80.58
64362;BME280;50685;53.346;-6.296;2023-01-26T07:01:32;103559.75;;;5.04;80.54
64362;BME280;50685;53.346;-6.296;2023-01-26T07:03:58;103565.81;;;5.03;80.80
64362;BME280;50685;53.346;-6.296;2023-01-26T07:06:24;103571.81;;;5.01;80.71
64362;BME280;50685;53.346;-6.296;2023-01-26T07:08:49;103577.81;;;4.98;81.01
64362;BME280;50685;53.346;-6.296;2023-01-26T07:11:14;103579.53;;;4.97;81.07
64362;BME280;50685;53.346;-6.296;2023-01-26T07:13:41;103589.06;;;4.95;81.12
64362;BME280;50685;53.346;-6.296;2023-01-26T07:16:08;103582.75;;;4.92;81.36
64362;BME280;50685;53.346;-6.296;2023-01-26T07:18:34;103591.44;;;4.91;81.30
64362;BME280;50685;53.346;-6.296;2023-01-26T07:21:01;103591.44;;;4.91;81.24
64362;BME280;50685;53.346;-6.296;2023-01-26T07:23:27;103589.44;;;4.87;81.57
64362;BME280;50685;53.346;-6.296;2023-01-26T07:25:53;103589.44;;;4.87;81.52
64362;BME280;50685;53.346;-6.296;2023-01-26T07:28:18;103599.97;;;4.87;81.65
64362;BME280;50685;53.346;-6.296;2023-01-26T07:30:43;103591.09;;;4.85;81.63
64362;BME280;50685;53.346;-6.296;2023-01-26T07:33:08;103597.09;;;4.82;81.88
64362;BME280;50685;53.346;-6.296;2023-01-26T07:35:34;103594.47;;;4.82;81.82
64362;BME280;50685;53.346;-6.296;2023-01-26T07:37:59;103590.84;;;4.80;81.92
64362;BME280;50685;53.346;-6.296;2023-01-26T07:40:25;103597.09;;;4.82;81.73
64362;BME280;50685;53.346;-6.296;2023-01-26T07:42:50;103584.84;;;4.82;81.84
64362;BME280;50685;53.346;-6.296;2023-01-26T07:45:15;103599.16;;;4.88;81.81
64362;BME280;50685;53.346;-6.296;2023-01-26T07:47:46;103588.47;;;4.85;81.50
64362;BME280;50685;53.346;-6.296;2023-01-26T07:50:12;103585.19;;;4.89;81.35
64362;BME280;50685;53.346;-6.296;2023-01-26T07:52:38;103588.47;;;4.85;81.16
64362;BME280;50685;53.346;-6.296;2023-01-26T07:55:03;103593.72;;;4.85;81.35
64362;BME280;50685;53.346;-6.296;2023-01-26T07:57:29;103590.38;;;4.87;81.34
64362;BME280;50685;53.346;-6.296;2023-01-26T07:59:54;103584.38;;;4.90;81.53
64362;BME280;50685;53.346;-6.296;2023-01-26T08:02:20;103592.34;;;4.91;81.47
64362;BME280;50685;53.346;-6.296;2023-01-26T08:04:47;103592.25;;;4.90;81.11
64362;BME280;50685;53.346;-6.296;2023-01-26T08:07:13;103592.34;;;4.91;81.21
64362;BME280;50685;53.346;-6.296;2023-01-26T08:09:38;103594.22;;;4.94;81.35
64362;BME280;50685;53.346;-6.296;2023-01-26T08:12:05;103590.78;;;4.95;81.13
64362;BME280;50685;53.346;-6.296;2023-01-26T08:14:31;103588.06;;;4.93;80.75
64362;BME280;50685;53.346;-6.296;2023-01-26T08:16:56;103587.19;;;4.93;80.88
64362;BME280;50685;53.346;-6.296;2023-01-26T08:19:22;103588.00;;;4.92;81.04
64362;BME280;50685;53.346;-6.296;2023-01-26T08:21:47;103583.56;;;4.91;81.25
64362;BME280;50685;53.346;-6.296;2023-01-26T08:24:15;103594.16;;;4.92;81.09
64362;BME280;50685;53.346;-6.296;2023-01-26T08:26:41;103589.63;;;4.90;81.08
64362;BME280;50685;53.346;-6.296;2023-01-26T08:29:06;103587.72;;;4.87;81.21
64362;BME280;50685;53.346;-6.296;2023-01-26T08:31:31;103591.09;;;4.85;81.26
64362;BME280;50685;53.346;-6.296;2023-01-26T08:33:57;103593.81;;;4.86;81.28
64362;BME280;50685;53.346;-6.296;2023-01-26T08:36:22;103590.28;;;4.86;81.75
64362;BME280;50685;53.346;-6.296;2023-01-26T08:38:48;103594.81;;;4.88;81.51
64362;BME280;50685;53.346;-6.296;2023-01-26T08:41:13;103595.78;;;4.90;81.35
64362;BME280;50685;53.346;-6.296;2023-01-26T08:43:39;103591.44;;;4.91;81.19
64362;BME280;50685;53.346;-6.296;2023-01-26T08:49:01;103613.63;;;4.96;81.33
64362;BME280;50685;53.346;-6.296;2023-01-26T08:51:30;103605.81;;;4.97;81.08
64362;BME280;50685;53.346;-6.296;2023-01-26T08:53:58;103604.94;;;4.97;81.13
64362;BME280;50685;53.346;-6.296;2023-01-26T08:56:23;103610.28;;;4.98;81.51
64362;BME280;50685;53.346;-6.296;2023-01-26T08:58:48;103607.56;;;4.97;81.38
64362;BME280;50685;53.346;-6.296;2023-01-26T09:01:15;103601.56;;;4.99;81.34
64362;BME280;50685;53.346;-6.296;2023-01-26T09:03:41;103601.75;;;5.03;80.83
64362;BME280;50685;53.346;-6.296;2023-01-26T09:06:18;103608.06;;;5.06;81.13
64362;BME280;50685;53.346;-6.296;2023-01-26T09:08:50;103614.41;;;5.10;80.85
64362;BME280;50685;53.346;-6.296;2023-01-26T09:11:15;103612.69;;;5.10;80.25
64362;BME280;50685;53.346;-6.296;2023-01-26T09:13:44;103611.94;;;5.13;80.28
64362;BME280;50685;53.346;-6.296;2023-01-26T09:16:20;103616.75;;;5.20;79.72
64362;BME280;50685;53.346;-6.296;2023-01-26T09:18:50;103607.38;;;5.25;79.90
64362;BME280;50685;53.346;-6.296;2023-01-26T09:21:16;103612.22;;;5.34;79.81
64362;BME280;50685;53.346;-6.296;2023-01-26T09:23:41;103611.72;;;5.41;79.83
64362;BME280;50685;53.346;-6.296;2023-01-26T09:26:07;103623.19;;;5.58;79.74
64362;BME280;50685;53.346;-6.296;2023-01-26T09:28:32;103618.97;;;5.78;79.57
64362;BME280;50685;53.346;-6.296;2023-01-26T09:31:05;103620.53;;;6.08;78.25
64362;BME280;50685;53.346;-6.296;2023-01-26T09:33:33;103617.66;;;6.56;77.61
64362;BME280;50685;53.346;-6.296;2023-01-26T09:36:03;103619.84;;;7.01;74.56
64362;BME280;50685;53.346;-6.296;2023-01-26T09:38:28;103621.78;;;7.43;74.66
64362;BME280;50685;53.346;-6.296;2023-01-26T09:43:41;103627.47;;;8.12;70.17
64362;BME280;50685;53.346;-6.296;2023-01-26T09:46:23;103634.72;;;8.38;68.90
64362;BME280;50685;53.346;-6.296;2023-01-26T09:49:25;103632.72;;;8.32;69.16
64362;BME280;50685;53.346;-6.296;2023-01-26T09:51:48;103633.19;;;8.22;69.19
64362;BME280;50685;53.346;-6.296;2023-01-26T09:56:48;103650.28;;;7.69;70.20
64362;BME280;50685;53.346;-6.296;2023-01-26T10:01:43;103655.28;;;7.44;71.67
64362;BME280;50685;53.346;-6.296;2023-01-26T10:06:44;103645.78;;;7.29;73.22
64362;BME280;50685;53.346;-6.296;2023-01-26T10:09:12;103650.16;;;7.29;73.54
64362;BME280;50685;53.346;-6.296;2023-01-26T10:11:45;103643.47;;;7.17;72.33
64362;BME280;50685;53.346;-6.296;2023-01-26T10:14:36;103648.47;;;7.11;73.38
64362;BME280;50685;53.346;-6.296;2023-01-26T10:17:04;103651.91;;;7.10;73.66
64362;BME280;50685;53.346;-6.296;2023-01-26T10:19:41;103658.19;;;7.12;73.78
64362;BME280;50685;53.346;-6.296;2023-01-26T10:22:27;103657.44;;;7.15;74.52
64362;BME280;50685;53.346;-6.296;2023-01-26T10:24:55;103655.31;;;7.07;73.83
64362;BME280;50685;53.346;-6.296;2023-01-26T10:27:21;103655.25;;;7.06;74.02
64362;BME280;50685;53.346;-6.296;2023-01-26T10:29:46;103640.47;;;6.91;74.09
64362;BME280;50685;53.346;-6.296;2023-01-26T10:32:15;103658.06;;;6.91;74.87
64362;BME280;50685;53.346;-6.296;2023-01-26T10:34:47;103661.00;;;6.79;74.37
64362;BME280;50685;53.346;-6.296;2023-01-26T10:37:23;103665.72;;;6.68;74.56
64362;BME280;50685;53.346;-6.296;2023-01-26T10:42:22;103667.78;;;6.74;75.18
64362;BME280;50685;53.346;-6.296;2023-01-26T10:44:51;103669.13;;;6.84;74.96
64362;BME280;50685;53.346;-6.296;2023-01-26T10:47:19;103672.06;;;6.90;75.38
64362;BME280;50685;53.346;-6.296;2023-01-26T10:49:46;103671.69;;;7.00;74.74
64362;BME280;50685;53.346;-6.296;2023-01-26T10:52:19;103665.06;;;7.08;74.36
64362;BME280;50685;53.346;-6.296;2023-01-26T10:54:46;103675.22;;;7.19;74.23
64362;BME280;50685;53.346;-6.296;2023-01-26T10:57:16;103678.06;;;7.23;73.46
64362;BME280;50685;53.346;-6.296;2023-01-26T10:59:47;103673.84;;;7.27;74.22
64362;BME280;50685;53.346;-6.296;2023-01-26T11:07:46;103685.69;;;7.35;74.19
64362;BME280;50685;53.346;-6.296;2023-01-26T11:12:44;103675.63;;;7.46;73.73
64362;BME280;50685;53.346;-6.296;2023-01-26T11:15:27;103677.50;;;7.49;73.06
64362;BME280;50685;53.346;-6.296;2023-01-26T11:17:58;103668.88;;;7.53;73.27
64362;BME280;50685;53.346;-6.296;2023-01-26T11:28:32;103680.94;;;7.66;73.17
64362;BME280;50685;53.346;-6.296;2023-01-26T11:31:07;103677.09;;;7.59;73.04
64362;BME280;50685;53.346;-6.296;2023-01-26T11:47:13;103674.47;;;7.79;72.69
64362;BME280;50685;53.346;-6.296;2023-01-26T11:55:06;103665.00;;;7.64;73.92
64362;BME280;50685;53.346;-6.296;2023-01-26T12:02:36;103649.56;;;7.74;74.08
64362;BME280;50685;53.346;-6.296;2023-01-26T12:05:09;103650.63;;;7.77;74.13
64362;BME280;50685;53.346;-6.296;2023-01-26T12:08:10;103650.91;;;7.83;74.16
64362;BME280;50685;53.346;-6.296;2023-01-26T12:13:16;103647.38;;;7.83;74.03
64362;BME280;50685;53.346;-6.296;2023-01-26T12:15:46;103632.53;;;7.86;74.15
64362;BME280;50685;53.346;-6.296;2023-01-26T12:18:23;103634.69;;;7.95;74.24
64362;BME280;50685;53.346;-6.296;2023-01-26T12:20:54;103636.63;;;7.99;73.75
64362;BME280;50685;53.346;-6.296;2023-01-26T12:28:30;103629.69;;;8.01;73.41
64362;BME280;50685;53.346;-6.296;2023-01-26T12:31:17;103634.31;;;8.07;73.45
64362;BME280;50685;53.346;-6.296;2023-01-26T12:33:55;103632.97;;;8.17;74.09
64362;BME280;50685;53.346;-6.296;2023-01-26T12:39:01;103632.28;;;8.21;73.15
64362;BME280;50685;53.346;-6.296;2023-01-26T12:41:37;103634.78;;;8.18;72.97
64362;BME280;50685;53.346;-6.296;2023-01-26T12:46:51;103618.22;;;8.43;72.81
64362;BME280;50685;53.346;-6.296;2023-01-26T12:49:32;103615.03;;;8.50;72.34
64362;BME280;50685;53.346;-6.296;2023-01-26T12:54:49;103618.09;;;8.61;71.47
64362;BME280;50685;53.346;-6.296;2023-01-26T12:57:20;103618.34;;;8.67;72.09
64362;BME280;50685;53.346;-6.296;2023-01-26T12:59:46;103611.28;;;8.89;71.76
64362;BME280;50685;53.346;-6.296;2023-01-26T13:04:43;103594.53;;;9.36;69.71
64362;BME280;50685;53.346;-6.296;2023-01-26T13:07:26;103591.59;;;9.52;69.77
64362;BME280;50685;53.346;-6.296;2023-01-26T13:13:24;103579.41;;;10.33;66.91
64362;BME280;50685;53.346;-6.296;2023-01-26T13:15:29;103572.44;;;10.63;65.68
64362;BME280;50685;53.346;-6.296;2023-01-26T13:17:58;103569.47;;;10.81;64.99
64362;BME280;50685;53.346;-6.296;2023-01-26T13:20:46;103559.34;;;10.98;65.68
64362;BME280;50685;53.346;-6.296;2023-01-26T13:26:15;103537.34;;;11.64;62.00
64362;BME280;50685;53.346;-6.296;2023-01-26T13:28:39;103542.66;;;11.98;62.01
64362;BME280;50685;53.346;-6.296;2023-01-26T13:31:09;103544.41;;;12.32;59.81
64362;BME280;50685;53.346;-6.296;2023-01-26T13:33:35;103548.81;;;12.68;62.63
64362;BME280;50685;53.346;-6.296;2023-01-26T13:36:01;103541.47;;;12.58;57.00
64362;BME280;50685;53.346;-6.296;2023-01-26T13:38:29;103540.88;;;12.72;57.55
64362;BME280;50685;53.346;-6.296;2023-01-26T13:40:57;103532.06;;;12.74;56.28
64362;BME280;50685;53.346;-6.296;2023-01-26T13:46:41;103528.63;;;13.21;54.92
64362;BME280;50685;53.346;-6.296;2023-01-26T13:49:25;103543.28;;;13.42;55.02
64362;BME280;50685;53.346;-6.296;2023-01-26T13:51:54;103527.75;;;13.66;56.02
64362;BME280;50685;53.346;-6.296;2023-01-26T13:54:19;103523.78;;;13.93;53.69
64362;BME280;50685;53.346;-6.296;2023-01-26T13:57:02;103527.69;;;14.16;51.85
64362;BME280;50685;53.346;-6.296;2023-01-26T13:59:28;103525.56;;;13.93;52.87
64362;BME280;50685;53.346;-6.296;2023-01-26T14:01:56;103519.38;;;13.46;52.53
64362;BME280;50685;53.346;-6.296;2023-01-26T14:04:25;103515.84;;;13.05;54.16
64362;BME280;50685;53.346;-6.296;2023-01-26T14:06:53;103515.63;;;12.52;55.73
64362;BME280;50685;53.346;-6.296;2023-01-26T14:09:23;103515.91;;;12.65;55.32
64362;BME280;50685;53.346;-6.296;2023-01-26T14:11:58;103515.63;;;12.52;54.26
64362;BME280;50685;53.346;-6.296;2023-01-26T14:14:31;103513.97;;;12.59;55.05
64362;BME280;50685;53.346;-6.296;2023-01-26T14:16:58;103519.13;;;12.93;55.46
64362;BME280;50685;53.346;-6.296;2023-01-26T14:19:27;103515.56;;;13.35;55.16
64362;BME280;50685;53.346;-6.296;2023-01-26T14:21:54;103510.72;;;13.58;51.41
64362;BME280;50685;53.346;-6.296;2023-01-26T14:24:36;103516.19;;;13.66;50.91
64362;BME280;50685;53.346;-6.296;2023-01-26T14:27:05;103501.44;;;13.87;51.70
64362;BME280;50685;53.346;-6.296;2023-01-26T14:29:43;103506.47;;;13.70;52.54